sensor_id;sensor_type;location;lat;lon;timestamp;pressure;altitude;pressure_sealevel;temperature;humidity
74230;BME280;62589;12.568;99.958;2022-11-03T00:00:19;100913.19;;;30.06;44.36
74230;BME280;62589;12.568;99.958;2022-11-03T00:02:45;100925.50;;;30.08;44.23
74230;BME280;62589;12.568;99.958;2022-11-03T00:05:12;100929.53;;;30.11;43.92
74230;BME280;62589;12.568;99.958;2022-11-03T00:07:49;100931.13;;;30.12;44.00
74230;BME280;62589;12.568;99.958;2022-11-03T00:10:16;100920.09;;;30.16;44.48
74230;BME280;62589;12.568;99.958;2022-11-03T00:12:42;100925.69;;;30.19;44.53
74230;BME280;62589;12.568;99.958;2022-11-03T00:15:09;100925.78;;;30.23;44.41
74230;BME280;62589;12.568;99.958;2022-11-03T00:17:35;100938.47;;;30.24;44.30
74230;BME280;62589;12.568;99.958;2022-11-03T00:20:02;100938.53;;;30.27;44.22
74230;BME280;62589;12.568;99.958;2022-11-03T00:22:28;100944.50;;;30.29;44.65
74230;BME280;62589;12.568;99.958;2022-11-03T00:24:57;100943.78;;;30.32;44.70
74230;BME280;62589;12.568;99.958;2022-11-03T00:27:24;100951.34;;;30.35;44.53
74230;BME280;62589;12.568;99.958;2022-11-03T00:29:50;100950.59;;;30.38;44.24
74230;BME280;62589;12.568;99.958;2022-11-03T00:32:17;100949.44;;;30.39;44.50
74230;BME280;62589;12.568;99.958;2022-11-03T00:34:43;100953.53;;;30.46;44.53
74230;BME280;62589;12.568;99.958;2022-11-03T00:37:09;100960.31;;;30.48;44.24
74230;BME280;62589;12.568;99.958;2022-11-03T00:39:35;100962.72;;;30.50;44.42
74230;BME280;62589;12.568;99.958;2022-11-03T00:42:02;100966.03;;;30.55;44.11
74230;BME280;62589;12.568;99.958;2022-11-03T00:44:28;100970.06;;;30.61;44.12
74230;BME280;62589;12.568;99.958;2022-11-03T00:46:55;100979.31;;;30.69;44.07
74230;BME280;62589;12.568;99.958;2022-11-03T00:49:21;100972.00;;;30.80;43.93
74230;BME280;62589;12.568;99.958;2022-11-03T00:51:48;100973.72;;;30.88;44.28
74230;BME280;62589;12.568;99.958;2022-11-03T00:54:14;100973.88;;;30.95;43.87
74230;BME280;62589;12.568;99.958;2022-11-03T00:56:41;100972.34;;;31.01;43.89
74230;BME280;62589;12.568;99.958;2022-11-03T00:59:09;100982.78;;;31.08;44.06
74230;BME280;62589;12.568;99.958;2022-11-03T01:01:41;100981.72;;;31.13;44.07
74230;BME280;62589;12.568;99.958;2022-11-03T01:04:08;100981.06;;;31.23;43.86
74230;BME280;62589;12.568;99.958;2022-11-03T01:06:49;100985.56;;;31.31;43.53
74230;BME280;62589;12.568;99.958;2022-11-03T01:09:36;100980.91;;;31.38;43.90
74230;BME280;62589;12.568;99.958;2022-11-03T01:12:12;100992.63;;;31.51;43.94
74230;BME280;62589;12.568;99.958;2022-11-03T01:14:44;101001.88;;;31.62;43.89
74230;BME280;62589;12.568;99.958;2022-11-03T01:17:16;101002.88;;;31.73;43.98
74230;BME280;62589;12.568;99.958;2022-11-03T01:19:43;101007.88;;;31.91;43.54
74230;BME280;62589;12.568;99.958;2022-11-03T01:22:10;101017.94;;;32.02;43.90
74230;BME280;62589;12.568;99.958;2022-11-03T01:24:38;101015.75;;;32.15;43.32
74230;BME280;62589;12.568;99.958;2022-11-03T01:27:06;101020.69;;;32.29;43.55
74230;BME280;62589;12.568;99.958;2022-11-03T01:29:33;101022.41;;;32.37;43.37
74230;BME280;62589;12.568;99.958;2022-11-03T01:31:59;101032.44;;;32.49;43.20
74230;BME280;62589;12.568;99.958;2022-11-03T01:34:25;101027.78;;;32.56;43.09
74230;BME280;62589;12.568;99.958;2022-11-03T01:36:52;101038.94;;;32.60;42.56
74230;BME280;62589;12.568;99.958;2022-11-03T01:39:19;101040.56;;;32.64;43.16
74230;BME280;62589;12.568;99.958;2022-11-03T01:41:48;101037.41;;;32.66;42.80
74230;BME280;62589;12.568;99.958;2022-11-03T01:44:35;101040.72;;;32.75;43.03
74230;BME280;62589;12.568;99.958;2022-11-03T01:50:04;101047.13;;;32.79;43.02
74230;BME280;62589;12.568;99.958;2022-11-03T01:52:42;101043.97;;;32.84;43.36
74230;BME280;62589;12.568;99.958;2022-11-03T01:55:16;101046.03;;;32.91;43.51
74230;BME280;62589;12.568;99.958;2022-11-03T02:00:51;101054.59;;;33.12;44.19
74230;BME280;62589;12.568;99.958;2022-11-03T02:03:21;101063.41;;;33.18;44.47
74230;BME280;62589;12.568;99.958;2022-11-03T02:05:49;101069.53;;;33.34;44.45
74230;BME280;62589;12.568;99.958;2022-11-03T02:08:23;101070.00;;;33.43;44.50
74230;BME280;62589;12.568;99.958;2022-11-03T02:10:51;101074.91;;;33.60;44.15
74230;BME280;62589;12.568;99.958;2022-11-03T02:13:23;101082.16;;;33.72;44.95
74230;BME280;62589;12.568;99.958;2022-11-03T02:15:53;101079.09;;;33.84;44.46
74230;BME280;62589;12.568;99.958;2022-11-03T02:18:28;101086.72;;;33.98;44.81
74230;BME280;62589;12.568;99.958;2022-11-03T02:21:26;101091.22;;;34.17;44.21
74230;BME280;62589;12.568;99.958;2022-11-03T02:24:05;101078.53;;;34.26;43.92
74230;BME280;62589;12.568;99.958;2022-11-03T02:26:36;101094.53;;;34.36;43.70
74230;BME280;62589;12.568;99.958;2022-11-03T02:29:02;101083.03;;;34.45;43.56
74230;BME280;62589;12.568;99.958;2022-11-03T02:31:40;101085.03;;;34.52;42.83
74230;BME280;62589;12.568;99.958;2022-11-03T02:34:13;101089.06;;;34.61;43.06
74230;BME280;62589;12.568;99.958;2022-11-03T02:36:55;101089.50;;;34.74;43.11
74230;BME280;62589;12.568;99.958;2022-11-03T02:42:25;101088.41;;;35.00;42.23
74230;BME280;62589;12.568;99.958;2022-11-03T02:44:53;101085.63;;;35.10;42.40
74230;BME280;62589;12.568;99.958;2022-11-03T02:47:22;101097.59;;;35.22;41.87
74230;BME280;62589;12.568;99.958;2022-11-03T02:49:53;101090.47;;;35.31;41.71
74230;BME280;62589;12.568;99.958;2022-11-03T03:04:06;101084.47;;;35.93;39.94
74230;BME280;62589;12.568;99.958;2022-11-03T03:06:49;101081.22;;;36.09;39.76
74230;BME280;62589;12.568;99.958;2022-11-03T03:09:22;101076.81;;;36.15;39.80
74230;BME280;62589;12.568;99.958;2022-11-03T03:11:51;101074.00;;;36.26;39.96
74230;BME280;62589;12.568;99.958;2022-11-03T03:14:30;101076.34;;;36.38;39.45
74230;BME280;62589;12.568;99.958;2022-11-03T03:17:12;101074.31;;;36.45;39.41
74230;BME280;62589;12.568;99.958;2022-11-03T03:22:46;101078.66;;;36.57;39.28
74230;BME280;62589;12.568;99.958;2022-11-03T03:28:18;101075.41;;;36.66;39.08
74230;BME280;62589;12.568;99.958;2022-11-03T03:30:47;101078.22;;;36.73;39.78
74230;BME280;62589;12.568;99.958;2022-11-03T03:33:14;101072.19;;;36.78;39.45
74230;BME280;62589;12.568;99.958;2022-11-03T03:35:46;101078.53;;;36.82;39.38
74230;BME280;62589;12.568;99.958;2022-11-03T03:38:23;101078.53;;;36.86;38.81
74230;BME280;62589;12.568;99.958;2022-11-03T03:40:52;101082.91;;;36.90;38.75
74230;BME280;62589;12.568;99.958;2022-11-03T03:43:23;101073.69;;;36.93;38.42
74230;BME280;62589;12.568;99.958;2022-11-03T03:45:53;101066.06;;;36.97;37.82
74230;BME280;62589;12.568;99.958;2022-11-03T03:48:21;101061.22;;;37.01;38.28
74230;BME280;62589;12.568;99.958;2022-11-03T03:50:48;101067.19;;;37.03;37.93
74230;BME280;62589;12.568;99.958;2022-11-03T03:53:17;101067.19;;;37.07;38.48
74230;BME280;62589;12.568;99.958;2022-11-03T03:55:47;101058.38;;;37.08;37.93
74230;BME280;62589;12.568;99.958;2022-11-03T03:58:15;101056.34;;;37.12;37.66
74230;BME280;62589;12.568;99.958;2022-11-03T04:00:42;101057.13;;;37.16;37.55
74230;BME280;62589;12.568;99.958;2022-11-03T04:03:18;101054.75;;;37.19;37.42
74230;BME280;62589;12.568;99.958;2022-11-03T04:05:45;101049.09;;;37.22;37.62
74230;BME280;62589;12.568;99.958;2022-11-03T04:08:13;101043.91;;;37.21;37.57
74230;BME280;62589;12.568;99.958;2022-11-03T04:10:40;101040.75;;;37.19;37.58
74230;BME280;62589;12.568;99.958;2022-11-03T04:13:26;101046.28;;;37.22;37.54
74230;BME280;62589;12.568;99.958;2022-11-03T04:16:04;101045.50;;;37.22;37.16
74230;BME280;62589;12.568;99.958;2022-11-03T04:18:42;101046.28;;;37.22;36.87
74230;BME280;62589;12.568;99.958;2022-11-03T04:21:20;101046.28;;;37.22;36.86
74230;BME280;62589;12.568;99.958;2022-11-03T04:23:58;101040.66;;;37.26;37.03
74230;BME280;62589;12.568;99.958;2022-11-03T04:26:26;101042.66;;;37.29;36.99
74230;BME280;62589;12.568;99.958;2022-11-03T04:28:53;101027.81;;;37.32;37.28
74230;BME280;62589;12.568;99.958;2022-11-03T04:31:21;101018.59;;;37.35;37.47
74230;BME280;62589;12.568;99.958;2022-11-03T04:33:50;101023.75;;;37.40;37.66
74230;BME280;62589;12.568;99.958;2022-11-03T04:36:19;101021.31;;;37.42;37.38
74230;BME280;62589;12.568;99.958;2022-11-03T04:38:47;101010.88;;;37.46;37.13
74230;BME280;62589;12.568;99.958;2022-11-03T04:41:24;101010.84;;;37.49;37.13
74230;BME280;62589;12.568;99.958;2022-11-03T04:43:51;101010.81;;;37.53;37.33
74230;BME280;62589;12.568;99.958;2022-11-03T04:46:27;101004.75;;;37.58;37.09
74230;BME280;62589;12.568;99.958;2022-11-03T04:48:57;100997.53;;;37.61;37.45
74230;BME280;62589;12.568;99.958;2022-11-03T04:51:27;100995.09;;;37.66;37.50
74230;BME280;62589;12.568;99.958;2022-11-03T04:54:02;100983.84;;;37.70;37.28
74230;BME280;62589;12.568;99.958;2022-11-03T04:56:29;100989.00;;;37.75;36.90
74230;BME280;62589;12.568;99.958;2022-11-03T04:58:57;100980.19;;;37.76;36.36
74230;BME280;62589;12.568;99.958;2022-11-03T05:01:24;100980.94;;;37.80;36.21
74230;BME280;62589;12.568;99.958;2022-11-03T05:03:52;100976.13;;;37.81;36.54
74230;BME280;62589;12.568;99.958;2022-11-03T05:06:26;100980.44;;;37.86;36.55
74230;BME280;62589;12.568;99.958;2022-11-03T05:08:55;100977.88;;;38.02;36.09
74230;BME280;62589;12.568;99.958;2022-11-03T05:11:43;100973.56;;;37.94;36.39
74230;BME280;62589;12.568;99.958;2022-11-03T05:14:17;100968.03;;;37.87;36.39
74230;BME280;62589;12.568;99.958;2022-11-03T05:16:44;100963.25;;;37.83;36.17
74230;BME280;62589;12.568;99.958;2022-11-03T05:19:23;100953.75;;;37.77;35.60
74230;BME280;62589;12.568;99.958;2022-11-03T05:21:52;100953.44;;;37.68;36.44
74230;BME280;62589;12.568;99.958;2022-11-03T05:24:21;100955.50;;;37.61;36.79
74230;BME280;62589;12.568;99.958;2022-11-03T05:26:51;100948.75;;;37.58;36.30
74230;BME280;62589;12.568;99.958;2022-11-03T05:29:20;100944.75;;;37.56;36.21
74230;BME280;62589;12.568;99.958;2022-11-03T05:31:49;100945.97;;;37.55;36.42
74230;BME280;62589;12.568;99.958;2022-11-03T05:34:43;100939.06;;;37.63;36.83
74230;BME280;62589;12.568;99.958;2022-11-03T05:37:31;100941.06;;;37.62;36.92
74230;BME280;62589;12.568;99.958;2022-11-03T05:42:52;100925.91;;;37.60;36.80
74230;BME280;62589;12.568;99.958;2022-11-03T05:45:30;100921.84;;;37.64;37.65
74230;BME280;62589;12.568;99.958;2022-11-03T05:48:01;100916.22;;;37.68;36.81
74230;BME280;62589;12.568;99.958;2022-11-03T05:50:32;100912.25;;;37.65;35.63
74230;BME280;62589;12.568;99.958;2022-11-03T05:55:59;100907.41;;;37.69;35.90
74230;BME280;62589;12.568;99.958;2022-11-03T05:58:38;100900.59;;;37.70;36.18
74230;BME280;62589;12.568;99.958;2022-11-03T06:01:15;100903.75;;;37.72;35.76
74230;BME280;62589;12.568;99.958;2022-11-03T06:03:45;100894.56;;;37.72;35.51
74230;BME280;62589;12.568;99.958;2022-11-03T06:06:32;100898.13;;;37.76;34.98
74230;BME280;62589;12.568;99.958;2022-11-03T06:09:11;100891.34;;;37.73;35.06
74230;BME280;62589;12.568;99.958;2022-11-03T06:11:39;100889.75;;;37.72;35.22
74230;BME280;62589;12.568;99.958;2022-11-03T06:14:27;100887.69;;;37.76;35.33
74230;BME280;62589;12.568;99.958;2022-11-03T06:17:08;100880.50;;;37.75;35.41
74230;BME280;62589;12.568;99.958;2022-11-03T06:19:38;100874.50;;;37.77;35.60
74230;BME280;62589;12.568;99.958;2022-11-03T06:25:20;100859.25;;;37.78;35.27
74230;BME280;62589;12.568;99.958;2022-11-03T06:27:48;100858.47;;;37.77;35.20
74230;BME280;62589;12.568;99.958;2022-11-03T06:30:35;100855.56;;;37.84;35.35
74230;BME280;62589;12.568;99.958;2022-11-03T06:33:18;100850.81;;;37.81;35.25
74230;BME280;62589;12.568;99.958;2022-11-03T06:35:49;100853.66;;;37.78;35.43
74230;BME280;62589;12.568;99.958;2022-11-03T06:38:26;100849.69;;;37.75;35.38
74230;BME280;62589;12.568;99.958;2022-11-03T06:40:54;100852.06;;;37.77;35.38
74230;BME280;62589;12.568;99.958;2022-11-03T06:43:25;100849.69;;;37.75;35.39
74230;BME280;62589;12.568;99.958;2022-11-03T06:45:58;100841.69;;;37.74;34.61
74230;BME280;62589;12.568;99.958;2022-11-03T06:48:29;100838.06;;;37.77;34.80
74230;BME280;62589;12.568;99.958;2022-11-03T06:51:00;100829.28;;;37.75;33.97
74230;BME280;62589;12.568;99.958;2022-11-03T06:53:31;100838.53;;;37.72;34.43
74230;BME280;62589;12.568;99.958;2022-11-03T06:55:59;100829.75;;;37.70;33.47
74230;BME280;62589;12.568;99.958;2022-11-03T06:58:34;100820.91;;;37.71;33.32
74230;BME280;62589;12.568;99.958;2022-11-03T07:01:08;100823.34;;;37.69;34.14
74230;BME280;62589;12.568;99.958;2022-11-03T07:03:37;100817.75;;;37.69;33.91
74230;BME280;62589;12.568;99.958;2022-11-03T07:06:21;100816.13;;;37.72;34.03
74230;BME280;62589;12.568;99.958;2022-11-03T07:08:58;100818.97;;;37.68;33.99
74230;BME280;62589;12.568;99.958;2022-11-03T07:14:20;100802.56;;;37.67;33.69
74230;BME280;62589;12.568;99.958;2022-11-03T07:16:53;100796.16;;;37.66;33.43
74230;BME280;62589;12.568;99.958;2022-11-03T07:19:26;100783.38;;;37.65;32.81
74230;BME280;62589;12.568;99.958;2022-11-03T07:22:18;100774.50;;;37.70;33.19
74230;BME280;62589;12.568;99.958;2022-11-03T07:24:56;100773.75;;;37.66;33.61
74230;BME280;62589;12.568;99.958;2022-11-03T07:27:33;100770.97;;;37.66;33.86
74230;BME280;62589;12.568;99.958;2022-11-03T07:30:21;100766.53;;;37.69;33.75
74230;BME280;62589;12.568;99.958;2022-11-03T07:32:52;100764.16;;;37.64;34.35
74230;BME280;62589;12.568;99.958;2022-11-03T07:35:30;100769.84;;;37.60;34.46
74230;BME280;62589;12.568;99.958;2022-11-03T07:38:01;100769.84;;;37.60;34.54
74230;BME280;62589;12.568;99.958;2022-11-03T07:40:31;100770.25;;;37.59;34.55
74230;BME280;62589;12.568;99.958;2022-11-03T07:43:07;100765.06;;;37.57;34.67
74230;BME280;62589;12.568;99.958;2022-11-03T07:45:40;100760.31;;;37.54;34.13
74230;BME280;62589;12.568;99.958;2022-11-03T07:48:26;100760.72;;;37.53;34.25
74230;BME280;62589;12.568;99.958;2022-11-03T07:50:58;100756.38;;;37.48;34.99
74230;BME280;62589;12.568;99.958;2022-11-03T07:53:44;100746.81;;;37.45;34.63
74230;BME280;62589;12.568;99.958;2022-11-03T07:56:20;100748.09;;;37.41;35.08
74230;BME280;62589;12.568;99.958;2022-11-03T08:01:48;100747.81;;;37.32;34.19
74230;BME280;62589;12.568;99.958;2022-11-03T08:04:19;100753.06;;;37.26;34.81
74230;BME280;62589;12.568;99.958;2022-11-03T08:06:47;100743.50;;;37.24;34.26
74230;BME280;62589;12.568;99.958;2022-11-03T08:09:14;100746.38;;;37.20;35.34
74230;BME280;62589;12.568;99.958;2022-11-03T08:11:41;100745.59;;;37.16;35.11
74230;BME280;62589;12.568;99.958;2022-11-03T08:14:08;100748.84;;;37.11;35.16
74230;BME280;62589;12.568;99.958;2022-11-03T08:16:35;100745.28;;;37.07;35.29
74230;BME280;62589;12.568;99.958;2022-11-03T08:19:02;100740.09;;;37.05;35.51
74230;BME280;62589;12.568;99.958;2022-11-03T08:21:29;100744.59;;;36.99;35.63
74230;BME280;62589;12.568;99.958;2022-11-03T08:23:55;100738.25;;;36.95;35.62
74230;BME280;62589;12.568;99.958;2022-11-03T08:26:22;100739.47;;;36.94;35.01
74230;BME280;62589;12.568;99.958;2022-11-03T08:28:49;100741.88;;;36.92;35.02
74230;BME280;62589;12.568;99.958;2022-11-03T08:31:16;100741.88;;;36.92;35.19
74230;BME280;62589;12.568;99.958;2022-11-03T08:33:46;100727.88;;;36.92;35.53
74230;BME280;62589;12.568;99.958;2022-11-03T08:36:13;100733.09;;;36.90;35.18
74230;BME280;62589;12.568;99.958;2022-11-03T08:38:40;100731.50;;;36.89;34.77
74230;BME280;62589;12.568;99.958;2022-11-03T08:41:09;100724.34;;;36.88;34.65
74230;BME280;62589;12.568;99.958;2022-11-03T08:43:36;100725.13;;;36.89;34.94
74230;BME280;62589;12.568;99.958;2022-11-03T08:46:03;100724.72;;;36.90;35.23
74230;BME280;62589;12.568;99.958;2022-11-03T08:48:29;100728.72;;;36.89;35.45
74230;BME280;62589;12.568;99.958;2022-11-03T08:50:56;100721.91;;;36.90;35.40
74230;BME280;62589;12.568;99.958;2022-11-03T08:53:26;100723.94;;;36.86;35.24
74230;BME280;62589;12.568;99.958;2022-11-03T08:55:53;100723.16;;;36.86;34.84
74230;BME280;62589;12.568;99.958;2022-11-03T08:58:21;100729.16;;;36.84;34.78
74230;BME280;62589;12.568;99.958;2022-11-03T09:00:48;100727.56;;;36.83;34.90
74230;BME280;62589;12.568;99.958;2022-11-03T09:03:15;100718.38;;;36.82;34.90
74230;BME280;62589;12.568;99.958;2022-11-03T09:05:42;100714.81;;;36.82;35.44
74230;BME280;62589;12.568;99.958;2022-11-03T09:08:08;100718.81;;;36.81;34.54
74230;BME280;62589;12.568;99.958;2022-11-03T09:10:35;100710.81;;;36.79;34.25
74230;BME280;62589;12.568;99.958;2022-11-03T09:13:02;100716.06;;;36.77;34.40
74230;BME280;62589;12.568;99.958;2022-11-03T09:15:29;100722.88;;;36.76;34.34
74230;BME280;62589;12.568;99.958;2022-11-03T09:17:56;100712.91;;;36.75;33.77
74230;BME280;62589;12.568;99.958;2022-11-03T09:20:22;100718.13;;;36.73;33.40
74230;BME280;62589;12.568;99.958;2022-11-03T09:22:49;100719.72;;;36.71;33.72
74230;BME280;62589;12.568;99.958;2022-11-03T09:25:16;100716.91;;;36.71;33.78
74230;BME280;62589;12.568;99.958;2022-11-03T09:27:43;100715.31;;;36.70;34.01
74230;BME280;62589;12.568;99.958;2022-11-03T09:30:10;100716.94;;;36.67;33.29
74230;BME280;62589;12.568;99.958;2022-11-03T09:32:37;100718.16;;;36.66;33.13
74230;BME280;62589;12.568;99.958;2022-11-03T09:35:05;100716.56;;;36.65;33.74
74230;BME280;62589;12.568;99.958;2022-11-03T09:37:33;100722.16;;;36.65;34.44
74230;BME280;62589;12.568;99.958;2022-11-03T09:39:59;100723.78;;;36.63;34.49
74230;BME280;62589;12.568;99.958;2022-11-03T09:42:27;100719.81;;;36.60;34.43
74230;BME280;62589;12.568;99.958;2022-11-03T09:44:55;100725.41;;;36.60;34.34
74230;BME280;62589;12.568;99.958;2022-11-03T09:47:34;100719.00;;;36.60;34.41
74230;BME280;62589;12.568;99.958;2022-11-03T09:52:17;100721.06;;;36.11;35.21
74230;BME280;62589;12.568;99.958;2022-11-03T09:54:45;100731.72;;;36.23;34.95
74230;BME280;62589;12.568;99.958;2022-11-03T09:57:15;100729.69;;;36.31;34.84
74230;BME280;62589;12.568;99.958;2022-11-03T09:59:46;100728.06;;;36.37;34.57
74230;BME280;62589;12.568;99.958;2022-11-03T10:02:34;100728.75;;;36.44;35.09
74230;BME280;62589;12.568;99.958;2022-11-03T10:05:12;100727.19;;;36.40;34.81
74230;BME280;62589;12.568;99.958;2022-11-03T10:07:41;100726.41;;;36.39;34.42
74230;BME280;62589;12.568;99.958;2022-11-03T10:10:16;100730.41;;;36.38;34.86
74230;BME280;62589;12.568;99.958;2022-11-03T10:12:43;100735.66;;;36.36;35.11
74230;BME280;62589;12.568;99.958;2022-11-03T10:15:19;100730.88;;;36.33;35.31
74230;BME280;62589;12.568;99.958;2022-11-03T10:17:48;100735.28;;;36.31;36.13
74230;BME280;62589;12.568;99.958;2022-11-03T10:20:19;100741.72;;;36.24;36.77
74230;BME280;62589;12.568;99.958;2022-11-03T10:22:49;100737.75;;;36.18;36.85
74230;BME280;62589;12.568;99.958;2022-11-03T10:25:38;100737.84;;;36.11;36.59
74230;BME280;62589;12.568;99.958;2022-11-03T10:28:17;100741.06;;;36.06;37.16
74230;BME280;62589;12.568;99.958;2022-11-03T10:30:53;100745.09;;;35.98;37.49
74230;BME280;62589;12.568;99.958;2022-11-03T10:33:40;100758.72;;;35.96;37.33
74230;BME280;62589;12.568;99.958;2022-11-03T10:36:27;100756.78;;;35.86;37.63
74230;BME280;62589;12.568;99.958;2022-11-03T10:38:58;100753.63;;;35.76;37.65
74230;BME280;62589;12.568;99.958;2022-11-03T10:41:30;100755.66;;;35.69;37.86
74230;BME280;62589;12.568;99.958;2022-11-03T10:44:17;100762.06;;;35.66;37.61
74230;BME280;62589;12.568;99.958;2022-11-03T10:46:59;100762.13;;;35.55;38.06
74230;BME280;62589;12.568;99.958;2022-11-03T10:49:30;100769.38;;;35.45;38.90
74230;BME280;62589;12.568;99.958;2022-11-03T10:52:20;100770.16;;;35.46;39.46
74230;BME280;62589;12.568;99.958;2022-11-03T10:54:49;100767.41;;;35.35;40.47
74230;BME280;62589;12.568;99.958;2022-11-03T10:57:17;100767.06;;;35.30;40.27
74230;BME280;62589;12.568;99.958;2022-11-03T10:59:46;100771.44;;;35.24;39.83
74230;BME280;62589;12.568;99.958;2022-11-03T11:05:23;100783.91;;;34.91;40.86
74230;BME280;62589;12.568;99.958;2022-11-03T11:07:51;100783.91;;;34.87;40.39
74230;BME280;62589;12.568;99.958;2022-11-03T11:10:26;100781.50;;;34.89;39.79
74230;BME280;62589;12.568;99.958;2022-11-03T11:16:00;100778.31;;;34.87;39.75
74230;BME280;62589;12.568;99.958;2022-11-03T11:19:02;100785.50;;;34.88;39.31
74230;BME280;62589;12.568;99.958;2022-11-03T11:21:49;100784.72;;;34.84;38.97
74230;BME280;62589;12.568;99.958;2022-11-03T11:33:27;100794.66;;;34.60;39.60
74230;BME280;62589;12.568;99.958;2022-11-03T11:36:03;100790.28;;;34.56;39.90
74230;BME280;62589;12.568;99.958;2022-11-03T11:47:24;100809.81;;;34.38;40.52
74230;BME280;62589;12.568;99.958;2022-11-03T11:50:21;100823.75;;;34.34;41.66
74230;BME280;62589;12.568;99.958;2022-11-03T11:53:02;100818.16;;;34.27;42.13
74230;BME280;62589;12.568;99.958;2022-11-03T11:55:37;100814.94;;;34.18;41.91
74230;BME280;62589;12.568;99.958;2022-11-03T11:58:14;100819.72;;;34.14;42.74
74230;BME280;62589;12.568;99.958;2022-11-03T12:00:54;100826.09;;;34.07;45.64
74230;BME280;62589;12.568;99.958;2022-11-03T12:06:15;100831.63;;;33.97;42.83
74230;BME280;62589;12.568;99.958;2022-11-03T12:08:42;100838.78;;;33.91;45.74
74230;BME280;62589;12.568;99.958;2022-11-03T12:11:11;100830.00;;;33.89;43.88
74230;BME280;62589;12.568;99.958;2022-11-03T12:13:48;100839.97;;;33.83;45.84
74230;BME280;62589;12.568;99.958;2022-11-03T12:16:35;100840.75;;;33.79;45.47
74230;BME280;62589;12.568;99.958;2022-11-03T12:21:52;100843.44;;;33.69;44.22
74230;BME280;62589;12.568;99.958;2022-11-03T12:24:34;100845.03;;;33.63;47.28
74230;BME280;62589;12.568;99.958;2022-11-03T12:27:15;100850.16;;;33.54;48.55
74230;BME280;62589;12.568;99.958;2022-11-03T12:29:43;100865.25;;;33.49;48.45
74230;BME280;62589;12.568;99.958;2022-11-03T12:32:10;100871.19;;;33.44;48.00
74230;BME280;62589;12.568;99.958;2022-11-03T12:34:37;100877.53;;;33.41;47.35
74230;BME280;62589;12.568;99.958;2022-11-03T12:37:03;100880.69;;;33.36;48.39
74230;BME280;62589;12.568;99.958;2022-11-03T12:39:30;100876.69;;;33.33;46.32
74230;BME280;62589;12.568;99.958;2022-11-03T12:41:56;100889.41;;;33.31;45.65
74230;BME280;62589;12.568;99.958;2022-11-03T12:44:23;100890.97;;;33.28;48.37
74230;BME280;62589;12.568;99.958;2022-11-03T12:46:50;100894.91;;;33.24;48.20
74230;BME280;62589;12.568;99.958;2022-11-03T12:49:17;100898.06;;;33.19;48.22
74230;BME280;62589;12.568;99.958;2022-11-03T12:51:43;100899.63;;;33.16;46.61
74230;BME280;62589;12.568;99.958;2022-11-03T12:54:10;100901.56;;;33.12;48.46
74230;BME280;62589;12.568;99.958;2022-11-03T12:56:37;100911.50;;;33.09;49.61
74230;BME280;62589;12.568;99.958;2022-11-03T12:59:03;100912.66;;;33.05;49.93
74230;BME280;62589;12.568;99.958;2022-11-03T13:01:30;100908.25;;;33.00;49.67
74230;BME280;62589;12.568;99.958;2022-11-03T13:03:58;100913.41;;;32.98;48.48
74230;BME280;62589;12.568;99.958;2022-11-03T13:06:25;100925.72;;;32.97;47.04
74230;BME280;62589;12.568;99.958;2022-11-03T13:08:52;100928.06;;;32.95;45.07
74230;BME280;62589;12.568;99.958;2022-11-03T13:11:19;100928.84;;;32.92;48.02
74230;BME280;62589;12.568;99.958;2022-11-03T13:13:57;100929.63;;;32.89;49.46
74230;BME280;62589;12.568;99.958;2022-11-03T13:16:24;100935.94;;;32.86;49.21
74230;BME280;62589;12.568;99.958;2022-11-03T13:18:51;100943.47;;;32.82;50.02
74230;BME280;62589;12.568;99.958;2022-11-03T13:21:18;100941.47;;;32.79;49.65
74230;BME280;62589;12.568;99.958;2022-11-03T13:23:44;100942.59;;;32.74;50.65
74230;BME280;62589;12.568;99.958;2022-11-03T13:26:11;100941.72;;;32.70;50.49
74230;BME280;62589;12.568;99.958;2022-11-03T13:28:38;100943.72;;;32.70;49.34
74230;BME280;62589;12.568;99.958;2022-11-03T13:31:05;100949.63;;;32.65;50.68
74230;BME280;62589;12.568;99.958;2022-11-03T13:33:35;100949.22;;;32.63;49.70
74230;BME280;62589;12.568;99.958;2022-11-03T13:36:02;100954.78;;;32.63;49.32
74230;BME280;62589;12.568;99.958;2022-11-03T13:38:29;100955.16;;;32.61;48.82
74230;BME280;62589;12.568;99.958;2022-11-03T13:40:55;100955.53;;;32.60;48.72
74230;BME280;62589;12.568;99.958;2022-11-03T13:43:22;100962.66;;;32.57;48.01
74230;BME280;62589;12.568;99.958;2022-11-03T13:45:49;100964.66;;;32.57;48.83
74230;BME280;62589;12.568;99.958;2022-11-03T13:48:15;100962.63;;;32.54;50.62
74230;BME280;62589;12.568;99.958;2022-11-03T13:50:44;100966.53;;;32.49;49.58
74230;BME280;62589;12.568;99.958;2022-11-03T13:53:11;100964.13;;;32.48;49.81
74230;BME280;62589;12.568;99.958;2022-11-03T13:55:38;100972.06;;;32.45;47.68
74230;BME280;62589;12.568;99.958;2022-11-03T13:58:04;100973.66;;;32.47;45.67
74230;BME280;62589;12.568;99.958;2022-11-03T14:00:31;100983.19;;;32.45;48.04
74230;BME280;62589;12.568;99.958;2022-11-03T14:02:58;100973.25;;;32.44;48.42
74230;BME280;62589;12.568;99.958;2022-11-03T14:05:24;100976.00;;;32.41;47.05
74230;BME280;62589;12.568;99.958;2022-11-03T14:07:51;100978.72;;;32.37;49.19
74230;BME280;62589;12.568;99.958;2022-11-03T14:10:18;100974.31;;;32.33;50.43
74230;BME280;62589;12.568;99.958;2022-11-03T14:12:45;100978.22;;;32.28;51.35
74230;BME280;62589;12.568;99.958;2022-11-03T14:15:12;100982.19;;;32.27;50.53